Time;durP1;ratioP1;P1;durP2;ratioP2;P2;SDS_P1;SDS_P2;PMS_P1;PMS_P2;Temp;Humidity;BMP_temperature;BMP_pressure;BME280_temperature;BME280_humidity;BME280_pressure;Samples;Min_cycle;Max_cycle;Signal;HPM_P1;HPM_P2
2023/02/10 00:02:23;;;;;;;33.85;16.63;;;2.00;99.90;;;;;;5012245;28;20044;-63
2023/02/10 00:04:50;;;;;;;37.58;16.85;;;2.00;99.90;;;;;;5017605;28;20084;-63
2023/02/10 00:07:17;;;;;;;35.92;16.63;;;2.00;99.90;;;;;;5019723;28;20400;-63
2023/02/10 00:09:42;;;;;;;35.33;16.88;;;2.00;99.90;;;;;;5021417;28;20534;-63
2023/02/10 00:12:09;;;;;;;30.27;16.58;;;2.00;99.90;;;;;;5022526;28;20038;-61
2023/02/10 00:14:35;;;;;;;36.63;16.83;;;2.00;99.90;;;;;;4998590;28;20097;-61
2023/02/10 00:17:01;;;;;;;41.67;17.23;;;2.00;99.90;;;;;;4999469;28;20113;-61
2023/02/10 00:19:28;;;;;;;38.80;17.25;;;1.90;99.90;;;;;;5031617;28;20029;-61
2023/02/10 00:21:54;;;;;;;37.38;16.42;;;1.90;99.90;;;;;;5016840;28;20500;-61
2023/02/10 00:24:21;;;;;;;38.47;16.85;;;1.90;99.90;;;;;;5001595;28;20117;-61
2023/02/10 00:26:47;;;;;;;38.00;15.82;;;1.90;99.90;;;;;;5034706;28;20037;-62
2023/02/10 00:29:13;;;;;;;38.67;16.52;;;1.90;99.90;;;;;;4988640;28;20528;-62
2023/02/10 00:31:40;;;;;;;36.53;16.23;;;1.90;99.90;;;;;;5015524;28;20042;-62
2023/02/10 00:34:07;;;;;;;37.10;15.98;;;1.90;99.90;;;;;;5001347;28;20049;-62
2023/02/10 00:36:33;;;;;;;32.88;16.55;;;1.90;99.90;;;;;;5013667;28;20092;-62
2023/02/10 00:38:58;;;;;;;38.80;16.83;;;1.90;99.90;;;;;;5002482;28;20125;-64
2023/02/10 00:41:24;;;;;;;38.35;16.90;;;1.90;99.90;;;;;;5027927;28;20045;-62
2023/02/10 00:43:51;;;;;;;37.28;15.73;;;1.90;99.90;;;;;;5008746;28;20041;-62
2023/02/10 00:46:19;;;;;;;34.85;14.98;;;1.80;99.90;;;;;;5020411;28;20088;-65
2023/02/10 00:48:45;;;;;;;32.42;15.10;;;1.80;99.90;;;;;;5030567;28;20064;-61
2023/02/10 00:51:11;;;;;;;33.85;15.55;;;1.80;99.90;;;;;;5015730;28;20033;-61
2023/02/10 00:53:37;;;;;;;33.40;15.07;;;1.80;99.90;;;;;;5011641;28;20430;-62
2023/02/10 00:56:03;;;;;;;38.08;15.75;;;1.80;99.90;;;;;;5015453;28;20046;-65
2023/02/10 00:58:29;;;;;;;30.63;14.77;;;1.80;99.90;;;;;;5012868;28;20034;-62
2023/02/10 01:00:55;;;;;;;33.17;14.98;;;1.80;99.90;;;;;;5022902;28;20439;-65
2023/02/10 01:03:22;;;;;;;35.45;14.75;;;1.80;99.90;;;;;;5016704;28;20030;-63
2023/02/10 01:05:48;;;;;;;30.58;15.18;;;1.80;99.90;;;;;;5021061;28;20030;-62
2023/02/10 01:08:14;;;;;;;34.65;15.73;;;1.80;99.90;;;;;;5020496;28;20456;-63
2023/02/10 01:10:40;;;;;;;34.45;14.93;;;1.80;99.90;;;;;;5016655;28;20033;-62
2023/02/10 01:13:07;;;;;;;35.70;15.32;;;1.80;99.90;;;;;;5014677;28;20041;-65
2023/02/10 01:15:33;;;;;;;35.95;14.35;;;1.80;99.90;;;;;;5023404;28;20076;-61
2023/02/10 01:17:59;;;;;;;34.53;14.85;;;1.80;99.90;;;;;;4995267;28;20080;-62
2023/02/10 01:20:25;;;;;;;36.55;15.32;;;1.80;99.90;;;;;;5006551;28;20034;-61
2023/02/10 01:22:51;;;;;;;31.42;15.55;;;1.80;99.90;;;;;;5030386;28;20042;-61
2023/02/10 01:25:17;;;;;;;32.75;15.18;;;1.70;99.90;;;;;;5024664;28;20104;-61
2023/02/10 01:27:43;;;;;;;33.33;15.80;;;1.70;99.90;;;;;;5007467;28;20049;-64
2023/02/10 01:30:09;;;;;;;35.35;14.70;;;1.80;99.90;;;;;;5007993;28;20068;-62
2023/02/10 01:32:35;;;;;;;34.92;15.13;;;1.80;99.90;;;;;;5032380;28;20045;-62
2023/02/10 01:35:01;;;;;;;36.38;15.48;;;1.80;99.90;;;;;;5016337;28;20041;-61
2023/02/10 01:37:26;;;;;;;34.35;15.07;;;1.80;99.90;;;;;;4997795;28;20044;-62
2023/02/10 01:39:52;;;;;;;35.22;14.00;;;1.70;99.90;;;;;;5000448;28;20034;-65
2023/02/10 01:42:17;;;;;;;33.47;14.50;;;1.80;99.90;;;;;;5023599;28;20076;-62
2023/02/10 01:44:43;;;;;;;33.65;15.20;;;1.80;99.90;;;;;;5004118;28;20041;-64
2023/02/10 01:47:09;;;;;;;37.42;14.98;;;1.70;99.90;;;;;;5018879;28;20042;-62
2023/02/10 01:49:40;;;;;;;28.30;14.25;;;1.70;99.90;;;;;;5016388;28;20045;-65
2023/02/10 01:52:12;;;;;;;30.45;14.25;;;1.70;99.90;;;;;;5028009;28;20116;-61
2023/02/10 01:55:01;;;;;;;33.25;15.82;;;1.70;99.90;;;;;;5021839;28;20048;-63
2023/02/10 01:57:28;;;;;;;32.13;14.60;;;1.70;99.90;;;;;;5028120;28;20042;-62
2023/02/10 01:59:54;;;;;;;30.92;13.98;;;1.70;99.90;;;;;;5019785;28;20045;-62
2023/02/10 02:02:20;;;;;;;35.08;14.70;;;1.70;99.90;;;;;;5027199;28;20033;-63
2023/02/10 02:04:53;;;;;;;34.50;14.55;;;1.70;99.90;;;;;;5015118;28;20506;-63
2023/02/10 02:07:23;;;;;;;33.75;14.77;;;1.70;99.90;;;;;;5034495;28;20038;-63
2023/02/10 02:09:49;;;;;;;31.55;14.82;;;1.70;99.90;;;;;;5021967;28;20045;-63
2023/02/10 02:12:23;;;;;;;38.97;14.77;;;1.70;99.90;;;;;;5027928;28;20117;-62
2023/02/10 02:14:57;;;;;;;33.78;14.43;;;1.70;99.90;;;;;;5024296;28;20042;-63
2023/02/10 02:17:31;;;;;;;32.75;14.75;;;1.70;99.90;;;;;;5019698;28;20065;-63
2023/02/10 02:23:17;;;;;;;;;;;1.70;99.90;;;;;;5020063;28;20045;-63
2023/02/10 02:25:57;;;;;;;32.73;13.87;;;1.70;99.90;;;;;;5013332;28;19983;-62
2023/02/10 02:28:45;;;;;;;34.67;14.27;;;1.70;99.90;;;;;;5026865;28;20025;-62
2023/02/10 02:31:45;;;;;;;35.88;13.70;;;1.70;99.90;;;;;;5025248;28;20049;-62
2023/02/10 02:34:17;;;;;;;32.10;13.45;;;1.70;99.90;;;;;;4999810;28;20132;-62
2023/02/10 02:36:54;;;;;;;36.60;13.63;;;1.70;99.90;;;;;;5025395;28;20052;-63
2023/02/10 02:39:22;;;;;;;25.95;12.38;;;1.70;99.90;;;;;;5028711;28;20037;-63
2023/02/10 02:41:58;;;;;;;28.25;12.75;;;1.70;99.90;;;;;;5015897;28;20049;-63
2023/02/10 02:44:24;;;;;;;25.25;12.30;;;1.70;99.90;;;;;;5019317;28;20038;-62
2023/02/10 02:47:07;;;;;;;31.52;13.38;;;1.70;99.90;;;;;;5020042;28;20040;-63
2023/02/10 02:49:54;;;;;;;30.02;13.07;;;1.70;99.90;;;;;;5012957;28;20178;-62
2023/02/10 02:52:31;;;;;;;32.63;12.52;;;1.70;99.90;;;;;;5039789;28;21014;-62
2023/02/10 02:55:07;;;;;;;31.42;12.45;;;1.70;99.90;;;;;;5014006;28;20084;-62
2023/02/10 02:57:47;;;;;;;30.83;12.68;;;1.70;99.90;;;;;;5014035;28;20042;-62
2023/02/10 03:00:17;;;;;;;26.95;12.10;;;1.70;99.90;;;;;;5014774;28;20061;-63
2023/02/10 03:02:45;;;;;;;33.00;13.10;;;1.60;99.90;;;;;;5012202;28;20486;-63
2023/02/10 03:05:16;;;;;;;29.23;12.75;;;1.60;99.90;;;;;;5012201;28;20034;-62
2023/02/10 03:07:41;;;;;;;29.33;12.27;;;1.60;99.90;;;;;;5025843;28;20094;-62
2023/02/10 03:10:07;;;;;;;29.00;12.90;;;1.60;99.90;;;;;;5021997;28;20083;-63
2023/02/10 03:12:33;;;;;;;33.38;12.38;;;1.60;99.90;;;;;;5023809;28;20068;-63
2023/02/10 03:14:59;;;;;;;31.27;12.82;;;1.60;99.90;;;;;;5016017;28;20038;-63
2023/02/10 03:17:24;;;;;;;25.85;11.70;;;1.60;99.90;;;;;;5001226;28;20073;-63
2023/02/10 03:19:50;;;;;;;26.20;12.43;;;1.60;99.90;;;;;;5031939;28;20049;-63
2023/02/10 03:22:16;;;;;;;27.10;11.30;;;1.60;99.90;;;;;;5018024;28;20543;-63
2023/02/10 03:24:41;;;;;;;32.45;12.55;;;1.60;99.90;;;;;;5021126;28;20099;-62
2023/02/10 03:27:07;;;;;;;27.70;12.30;;;1.70;99.90;;;;;;5014567;28;20056;-62
2023/02/10 03:29:33;;;;;;;32.35;12.43;;;1.60;99.90;;;;;;5011622;28;20088;-63
2023/02/10 03:32:01;;;;;;;29.13;12.23;;;1.60;99.90;;;;;;5021782;28;20082;-62
2023/02/10 03:34:28;;;;;;;29.63;12.07;;;1.70;99.90;;;;;;5017017;28;20416;-63
2023/02/10 03:36:53;;;;;;;35.05;12.43;;;1.70;99.90;;;;;;5026840;28;20046;-63
2023/02/10 03:39:19;;;;;;;26.50;11.77;;;1.70;99.90;;;;;;5013995;28;20186;-63
2023/02/10 03:41:44;;;;;;;25.58;11.48;;;1.60;99.90;;;;;;5008553;28;20534;-63
2023/02/10 03:44:10;;;;;;;30.38;12.93;;;1.60;99.90;;;;;;5018575;28;20045;-62
2023/02/10 03:46:36;;;;;;;25.73;11.63;;;1.60;99.90;;;;;;5025785;28;20495;-63
2023/02/10 03:49:03;;;;;;;31.17;13.20;;;1.60;99.90;;;;;;5008683;28;20041;-63
2023/02/10 03:51:29;;;;;;;29.08;12.45;;;1.60;99.90;;;;;;5016942;28;20069;-63
2023/02/10 03:53:55;;;;;;;30.83;12.80;;;1.60;99.90;;;;;;5003578;28;20436;-63
2023/02/10 03:56:21;;;;;;;30.25;13.43;;;1.60;99.90;;;;;;5011842;28;20041;-63
2023/02/10 03:58:46;;;;;;;32.45;13.57;;;1.60;99.90;;;;;;5022014;28;20194;-63
2023/02/10 04:01:15;;;;;;;31.73;13.63;;;1.60;99.90;;;;;;5015076;28;20714;-63
2023/02/10 04:03:41;;;;;;;29.77;13.43;;;1.60;99.90;;;;;;4991146;28;20542;-63
2023/02/10 04:06:07;;;;;;;31.88;13.77;;;1.60;99.90;;;;;;5017039;28;20092;-63
2023/02/10 04:08:33;;;;;;;27.85;14.02;;;1.60;99.90;;;;;;5012687;28;20096;-63
2023/02/10 04:11:01;;;;;;;30.75;13.95;;;1.60;99.90;;;;;;5014857;28;20105;-63
2023/02/10 04:13:27;;;;;;;33.33;13.55;;;1.60;99.90;;;;;;5016490;28;20034;-63
2023/02/10 04:16:11;;;;;;;32.45;13.88;;;1.60;99.90;;;;;;5011438;28;20045;-63
2023/02/10 04:18:38;;;;;;;29.70;13.40;;;1.60;99.90;;;;;;5010785;28;20041;-63
2023/02/10 04:21:05;;;;;;;31.52;13.52;;;1.60;99.90;;;;;;5028164;28;20052;-63
2023/02/10 04:23:31;;;;;;;28.00;13.18;;;1.60;99.90;;;;;;5021979;28;20415;-62
2023/02/10 04:25:58;;;;;;;29.98;12.95;;;1.60;99.90;;;;;;5016408;28;20096;-62
2023/02/10 04:28:23;;;;;;;27.30;13.15;;;1.60;99.90;;;;;;5018695;28;20040;-62
2023/02/10 04:30:54;;;;;;;26.88;12.95;;;1.60;99.90;;;;;;5014140;28;20498;-63
2023/02/10 04:33:19;;;;;;;27.77;12.40;;;1.60;99.90;;;;;;5013302;28;20116;-63
2023/02/10 04:35:47;;;;;;;26.10;12.77;;;1.60;99.90;;;;;;5015293;28;20117;-63
2023/02/10 04:38:13;;;;;;;29.13;12.35;;;1.50;99.90;;;;;;5022410;28;20473;-62
2023/02/10 04:40:39;;;;;;;28.20;12.70;;;1.50;99.90;;;;;;5028511;28;20049;-62
2023/02/10 04:43:06;;;;;;;22.38;11.00;;;1.50;99.90;;;;;;5011735;28;20049;-63
2023/02/10 04:45:31;;;;;;;20.77;10.15;;;1.50;99.90;;;;;;5009345;28;20495;-62
2023/02/10 04:47:57;;;;;;;24.33;10.73;;;1.50;99.90;;;;;;5018214;28;20130;-63
2023/02/10 04:50:23;;;;;;;28.30;11.13;;;1.50;99.90;;;;;;5015108;28;20071;-63
2023/02/10 04:52:48;;;;;;;25.85;10.45;;;1.50;99.90;;;;;;5021096;28;20045;-62
2023/02/10 04:55:14;;;;;;;25.35;10.48;;;1.50;99.90;;;;;;5011725;28;20041;-62
2023/02/10 04:57:40;;;;;;;25.65;9.85;;;1.50;99.90;;;;;;5027036;28;20086;-63
2023/02/10 05:00:06;;;;;;;27.52;10.63;;;1.50;99.90;;;;;;5028183;28;20483;-63
2023/02/10 05:02:32;;;;;;;25.85;9.88;;;1.50;99.90;;;;;;5016141;28;20145;-63
2023/02/10 05:04:57;;;;;;;25.77;10.82;;;1.50;99.90;;;;;;5025013;28;20738;-62
2023/02/10 05:07:23;;;;;;;23.27;9.77;;;1.60;99.90;;;;;;5016140;28;20061;-62
2023/02/10 05:09:49;;;;;;;23.83;9.73;;;1.60;99.90;;;;;;5020843;28;20121;-62
2023/02/10 05:12:14;;;;;;;19.95;9.88;;;1.60;99.90;;;;;;5000622;28;20476;-61
2023/02/10 05:14:40;;;;;;;20.60;9.27;;;1.60;99.90;;;;;;5017818;28;20048;-64
2023/02/10 05:17:06;;;;;;;23.15;10.50;;;1.60;99.90;;;;;;5016953;28;20072;-61
2023/02/10 05:19:31;;;;;;;26.08;10.77;;;1.60;99.90;;;;;;5015692;28;20038;-60
2023/02/10 05:21:57;;;;;;;26.63;10.60;;;1.50;99.90;;;;;;5020865;28;20435;-62
2023/02/10 05:24:23;;;;;;;26.20;10.13;;;1.50;99.90;;;;;;5012142;28;20088;-61
2023/02/10 05:26:49;;;;;;;23.40;10.27;;;1.50;99.90;;;;;;5016298;28;20034;-61
2023/02/10 05:29:14;;;;;;;23.33;10.35;;;1.50;99.90;;;;;;5011377;28;20472;-64
2023/02/10 05:31:40;;;;;;;18.00;9.43;;;1.50;99.90;;;;;;5014611;28;20033;-60
2023/02/10 05:34:06;;;;;;;24.35;9.82;;;1.50;99.90;;;;;;5012573;28;20045;-61
2023/02/10 05:36:31;;;;;;;27.85;9.82;;;1.50;99.90;;;;;;5012176;28;20065;-61
2023/02/10 05:41:41;;;;;;;24.63;9.23;;;1.60;99.90;;;;;;5005038;28;20037;-61
2023/02/10 05:44:07;;;;;;;25.30;10.48;;;1.50;99.90;;;;;;5026268;28;20026;-62
2023/02/10 05:46:33;;;;;;;21.20;9.57;;;1.50;99.90;;;;;;5022760;28;20037;-64
2023/02/10 05:48:58;;;;;;;23.80;10.45;;;1.50;99.90;;;;;;5027111;28;20062;-61
2023/02/10 05:51:24;;;;;;;23.05;9.77;;;1.40;99.90;;;;;;5013752;28;20038;-60
2023/02/10 05:53:50;;;;;;;20.35;9.55;;;1.40;99.90;;;;;;5030665;28;20033;-61
2023/02/10 05:56:15;;;;;;;25.35;10.38;;;1.40;99.90;;;;;;5024445;28;20136;-62
2023/02/10 05:58:41;;;;;;;19.48;9.90;;;1.40;99.90;;;;;;5014855;28;20048;-63
2023/02/10 06:01:08;;;;;;;22.80;10.45;;;1.40;99.90;;;;;;5012851;28;20045;-60
2023/02/10 06:03:34;;;;;;;24.17;10.50;;;1.40;99.90;;;;;;5018996;28;20122;-61
2023/02/10 06:05:59;;;;;;;26.83;10.85;;;1.40;99.90;;;;;;5008924;28;20471;-63
2023/02/10 06:08:26;;;;;;;30.35;11.27;;;1.40;99.90;;;;;;5017364;28;20121;-61
2023/02/10 06:10:52;;;;;;;24.50;9.88;;;1.40;99.90;;;;;;5029239;28;20060;-61
2023/02/10 06:13:17;;;;;;;23.55;10.52;;;1.40;99.90;;;;;;5001703;28;20046;-64
2023/02/10 06:15:43;;;;;;;22.35;9.68;;;1.40;99.90;;;;;;5009202;28;20048;-62
2023/02/10 06:18:09;;;;;;;20.27;9.82;;;1.40;99.90;;;;;;5003614;28;20037;-62
2023/02/10 06:20:34;;;;;;;21.20;9.55;;;1.40;99.90;;;;;;5021140;28;20125;-61
2023/02/10 06:23:03;;;;;;;20.70;10.02;;;1.40;99.90;;;;;;5026636;28;20407;-64
2023/02/10 06:25:29;;;;;;;18.52;9.32;;;1.40;99.90;;;;;;5017475;28;20528;-62
2023/02/10 06:27:54;;;;;;;21.30;10.30;;;1.40;99.90;;;;;;5021356;28;20037;-63
2023/02/10 06:30:20;;;;;;;24.45;10.52;;;1.40;99.90;;;;;;5011386;28;20167;-64
2023/02/10 06:32:46;;;;;;;24.05;10.48;;;1.40;99.90;;;;;;5024300;28;20041;-61
2023/02/10 06:35:11;;;;;;;21.67;10.73;;;1.40;99.90;;;;;;5034295;28;20036;-60
2023/02/10 06:37:37;;;;;;;25.92;10.70;;;1.40;99.90;;;;;;5023319;28;20161;-61
2023/02/10 06:40:04;;;;;;;24.33;10.77;;;1.40;99.90;;;;;;5031921;28;20106;-63
2023/02/10 06:42:30;;;;;;;21.98;10.65;;;1.50;99.90;;;;;;4999754;28;20048;-63
2023/02/10 06:44:55;;;;;;;20.95;10.65;;;1.40;99.90;;;;;;5014482;28;20488;-61
2023/02/10 06:47:21;;;;;;;20.10;9.82;;;1.40;99.90;;;;;;5006512;28;20033;-61
2023/02/10 06:49:47;;;;;;;19.80;10.32;;;1.40;99.90;;;;;;5018220;28;20042;-66
2023/02/10 06:52:12;;;;;;;22.00;10.32;;;1.50;99.90;;;;;;5007935;28;20455;-61
2023/02/10 06:54:38;;;;;;;21.75;10.52;;;1.50;99.90;;;;;;5001788;28;20050;-62
2023/02/10 06:57:04;;;;;;;22.65;10.55;;;1.40;99.90;;;;;;5013166;28;20507;-63
2023/02/10 06:59:31;;;;;;;27.65;10.98;;;1.40;99.90;;;;;;5000998;28;20088;-66
2023/02/10 07:02:00;;;;;;;21.13;10.82;;;1.40;99.90;;;;;;5021085;28;20128;-62
2023/02/10 07:04:30;;;;;;;27.15;11.07;;;1.40;99.90;;;;;;5006501;28;20072;-63
2023/02/10 07:06:57;;;;;;;24.85;11.27;;;1.40;99.90;;;;;;5013275;28;20042;-64
2023/02/10 07:09:23;;;;;;;23.27;11.35;;;1.40;99.90;;;;;;5020604;28;20052;-62
2023/02/10 07:11:49;;;;;;;27.98;11.38;;;1.40;99.90;;;;;;5011839;28;20038;-64
2023/02/10 07:14:15;;;;;;;24.15;10.80;;;1.30;99.90;;;;;;5018318;28;20053;-61
2023/02/10 07:16:41;;;;;;;24.13;11.13;;;1.30;99.90;;;;;;5025511;28;20407;-62
2023/02/10 07:19:07;;;;;;;23.30;12.10;;;1.30;99.90;;;;;;5016159;28;20034;-62
2023/02/10 07:21:32;;;;;;;27.38;12.23;;;1.40;99.90;;;;;;5017520;28;20072;-62
2023/02/10 07:24:00;;;;;;;27.42;12.57;;;1.30;99.90;;;;;;5012204;28;20069;-63
2023/02/10 07:26:26;;;;;;;30.48;12.43;;;1.40;99.90;;;;;;5011088;28;20123;-65
2023/02/10 07:28:51;;;;;;;28.77;13.07;;;1.30;99.90;;;;;;5010665;28;20116;-62
2023/02/10 07:31:17;;;;;;;28.15;12.77;;;1.30;99.90;;;;;;5020868;28;20041;-62
2023/02/10 07:33:43;;;;;;;24.70;12.60;;;1.30;99.90;;;;;;4982767;28;20054;-62
2023/02/10 07:36:08;;;;;;;28.35;13.35;;;1.30;99.90;;;;;;4996278;28;20511;-62
2023/02/10 07:38:35;;;;;;;29.80;13.70;;;1.40;99.90;;;;;;5015300;28;20442;-66
2023/02/10 07:41:05;;;;;;;28.55;13.73;;;1.30;99.90;;;;;;5017564;28;20048;-61
2023/02/10 07:43:31;;;;;;;26.40;12.95;;;1.40;99.90;;;;;;5015734;28;20095;-62
2023/02/10 07:45:57;;;;;;;27.23;13.25;;;1.40;99.90;;;;;;5024312;28;20037;-63
2023/02/10 07:48:22;;;;;;;27.30;13.10;;;1.30;99.90;;;;;;5017702;28;20041;-66
2023/02/10 07:50:51;;;;;;;29.23;13.45;;;1.40;99.90;;;;;;4998704;28;20042;-65
2023/02/10 07:53:20;;;;;;;30.08;13.82;;;1.40;99.90;;;;;;5017578;28;20052;-62
2023/02/10 07:55:46;;;;;;;24.92;14.18;;;1.40;99.90;;;;;;5019265;28;20037;-62
2023/02/10 07:58:12;;;;;;;30.30;14.90;;;1.40;99.90;;;;;;5025680;28;20432;-62
2023/02/10 08:00:38;;;;;;;28.30;14.57;;;1.30;99.90;;;;;;5027141;28;20116;-62
2023/02/10 08:03:04;;;;;;;24.23;13.88;;;1.40;99.90;;;;;;5000567;28;20052;-62
2023/02/10 08:05:30;;;;;;;27.60;14.38;;;1.40;99.90;;;;;;5009879;28;20042;-62
2023/02/10 08:07:55;;;;;;;29.35;15.05;;;1.40;99.90;;;;;;5025316;28;20049;-63
2023/02/10 08:10:21;;;;;;;31.58;14.18;;;1.40;99.90;;;;;;5026392;28;20026;-64
2023/02/10 08:12:47;;;;;;;26.92;14.60;;;1.40;99.90;;;;;;5023612;28;20091;-65
2023/02/10 08:15:16;;;;;;;31.38;15.23;;;1.40;99.90;;;;;;5021662;28;20127;-64
2023/02/10 08:17:43;;;;;;;28.67;15.38;;;1.40;99.90;;;;;;5001557;28;20456;-62
2023/02/10 08:20:09;;;;;;;30.10;14.98;;;1.40;99.90;;;;;;5019218;28;20125;-62
2023/02/10 08:22:35;;;;;;;33.15;15.65;;;1.50;99.90;;;;;;5012593;28;20092;-61
2023/02/10 08:25:01;;;;;;;32.03;15.40;;;1.50;99.90;;;;;;5017767;28;20037;-62
2023/02/10 08:27:28;;;;;;;34.05;15.65;;;1.50;99.90;;;;;;5006618;28;20404;-63
2023/02/10 08:29:54;;;;;;;32.17;15.05;;;1.50;99.90;;;;;;5023407;28;20045;-64
2023/02/10 08:32:20;;;;;;;35.30;16.48;;;1.50;99.90;;;;;;5017981;28;20033;-64
2023/02/10 08:34:47;;;;;;;34.92;15.50;;;1.60;99.90;;;;;;5000076;28;20038;-67
2023/02/10 08:37:13;;;;;;;36.80;17.77;;;1.60;99.90;;;;;;5029193;28;20054;-64
2023/02/10 08:39:39;;;;;;;34.42;17.25;;;1.60;99.90;;;;;;5030372;28;20384;-62
2023/02/10 08:42:05;;;;;;;34.50;16.42;;;1.60;99.90;;;;;;5012421;28;20049;-62
2023/02/10 08:44:30;;;;;;;37.22;17.55;;;1.70;99.90;;;;;;5025794;28;20488;-63
2023/02/10 08:46:56;;;;;;;35.38;18.58;;;1.70;99.90;;;;;;5017636;28;20113;-64
2023/02/10 08:49:24;;;;;;;38.28;18.33;;;1.80;99.90;;;;;;5014687;28;20037;-62
2023/02/10 08:51:53;;;;;;;31.40;16.02;;;1.90;99.90;;;;;;5019888;28;20437;-65
2023/02/10 08:54:20;;;;;;;39.35;18.65;;;2.00;99.90;;;;;;5021442;28;20491;-62
2023/02/10 08:56:45;;;;;;;34.92;18.52;;;2.10;99.90;;;;;;5026667;28;20037;-62
2023/02/10 08:59:11;;;;;;;40.75;19.52;;;2.10;99.90;;;;;;5024958;28;20160;-63
2023/02/10 09:01:37;;;;;;;45.80;20.30;;;2.20;99.90;;;;;;5023732;28;20022;-63
2023/02/10 09:04:03;;;;;;;43.30;20.00;;;2.30;99.90;;;;;;5016781;28;20110;-64
2023/02/10 09:06:33;;;;;;;43.35;19.23;;;2.40;99.90;;;;;;5017151;28;20056;-65
2023/02/10 09:08:59;;;;;;;37.97;18.70;;;2.50;99.90;;;;;;5008959;28;20056;-67
2023/02/10 09:11:26;;;;;;;42.80;19.65;;;2.60;99.90;;;;;;5028634;28;20099;-63
2023/02/10 09:13:52;;;;;;;38.15;19.33;;;2.60;99.90;;;;;;5007745;28;20412;-62
2023/02/10 09:16:19;;;;;;;42.00;19.08;;;2.70;99.90;;;;;;5012314;28;20033;-62
2023/02/10 09:18:45;;;;;;;37.80;18.55;;;2.80;99.90;;;;;;5017203;28;20045;-62
2023/02/10 09:21:11;;;;;;;44.47;18.55;;;2.80;99.90;;;;;;5021131;28;20514;-62
2023/02/10 09:23:37;;;;;;;37.97;17.83;;;2.90;99.90;;;;;;5021685;28;21281;-63
2023/02/10 09:26:02;;;;;;;41.03;19.42;;;3.00;99.90;;;;;;5010472;28;20416;-62
2023/02/10 09:28:29;;;;;;;42.42;18.60;;;3.00;99.90;;;;;;5003852;28;20120;-62
2023/02/10 09:30:55;;;;;;;40.22;18.52;;;3.00;99.90;;;;;;5007276;28;20034;-62
2023/02/10 09:33:21;;;;;;;39.35;18.08;;;3.00;99.90;;;;;;5018256;28;20041;-62
2023/02/10 09:35:47;;;;;;;41.90;19.08;;;3.00;99.90;;;;;;5017398;28;20077;-62
2023/02/10 09:38:13;;;;;;;38.33;18.25;;;3.00;99.90;;;;;;5022774;28;20447;-62
2023/02/10 09:41:05;;;;;;;39.28;18.73;;;3.10;99.90;;;;;;5020280;28;20056;-62
2023/02/10 09:43:55;;;;;;;43.73;17.10;;;3.10;99.90;;;;;;5014969;28;20080;-65
2023/02/10 09:46:30;;;;;;;38.00;17.75;;;3.10;99.90;;;;;;5006780;28;20392;-63
2023/02/10 09:49:28;;;;;;;39.75;19.27;;;3.20;99.90;;;;;;5027542;28;20429;-63
2023/02/10 09:52:07;;;;;;;40.33;17.83;;;3.30;99.90;;;;;;5031217;28;20487;-63
2023/02/10 09:54:33;;;;;;;46.13;18.63;;;3.40;99.90;;;;;;5017104;28;20053;-63
2023/02/10 09:57:13;;;;;;;43.05;18.83;;;3.50;99.90;;;;;;5031090;28;20033;-64
2023/02/10 09:59:40;;;;;;;39.00;17.73;;;3.60;99.90;;;;;;5021942;28;20047;-63
2023/02/10 10:02:24;;;;;;;42.60;19.00;;;3.70;99.90;;;;;;5025523;28;20214;-63
2023/02/10 10:04:50;;;;;;;39.42;18.10;;;3.70;99.90;;;;;;5018255;28;20042;-64
2023/02/10 10:07:22;;;;;;;43.05;18.40;;;3.80;99.90;;;;;;5025289;28;20117;-63
2023/02/10 10:10:01;;;;;;;38.17;17.08;;;3.90;99.90;;;;;;5020370;28;20092;-64
2023/02/10 10:12:27;;;;;;;35.10;18.08;;;4.00;99.90;;;;;;5006637;28;20109;-64
2023/02/10 10:14:53;;;;;;;40.33;17.65;;;4.10;99.90;;;;;;5004497;28;20053;-64
2023/02/10 10:17:42;;;;;;;36.85;17.80;;;4.10;99.90;;;;;;5014143;28;20041;-63
2023/02/10 10:20:40;;;;;;;31.50;16.08;;;4.20;99.90;;;;;;5030520;28;20041;-64
2023/02/10 10:23:32;;;;;;;37.85;15.85;;;4.30;99.90;;;;;;5022784;28;20161;-64
2023/02/10 10:26:16;;;;;;;38.53;16.67;;;4.40;99.90;;;;;;5011442;28;20491;-64
2023/02/10 10:29:00;;;;;;;35.72;16.45;;;4.40;99.90;;;;;;5020008;28;20037;-64
2023/02/10 10:31:34;;;;;;;33.75;14.20;;;4.60;99.90;;;;;;5000000;28;20044;-64
2023/02/10 10:34:03;;;;;;;27.15;13.55;;;4.70;99.90;;;;;;5013316;28;20037;-64
2023/02/10 10:36:34;;;;;;;38.28;14.15;;;4.80;99.90;;;;;;5010285;28;20037;-64
2023/02/10 10:39:27;;;;;;;31.25;12.60;;;4.90;99.90;;;;;;5012934;28;20120;-65
2023/02/10 10:41:54;;;;;;;35.08;12.60;;;5.00;99.90;;;;;;5013687;28;20056;-64
2023/02/10 10:44:22;;;;;;;36.70;13.02;;;5.10;99.90;;;;;;5020209;28;20034;-63
2023/02/10 10:47:15;;;;;;;34.88;13.82;;;5.20;99.90;;;;;;4984530;28;20471;-64
2023/02/10 10:49:40;;;;;;;27.85;12.57;;;5.30;99.90;;;;;;5007801;28;20044;-63
2023/02/10 10:52:33;;;;;;;29.67;12.43;;;5.40;99.90;;;;;;5026139;28;20128;-64
2023/02/10 10:55:01;;;;;;;28.58;12.35;;;5.40;99.90;;;;;;5015265;28;20037;-64
2023/02/10 10:57:28;;;;;;;28.20;12.55;;;5.50;99.90;;;;;;5017907;28;20113;-64
2023/02/10 11:00:02;;;;;;;28.35;11.82;;;5.50;99.90;;;;;;5020990;28;20438;-63
2023/02/10 11:02:27;;;;;;;24.35;11.13;;;5.60;99.90;;;;;;5006853;28;20074;-63
2023/02/10 11:05:20;;;;;;;25.02;11.65;;;5.60;99.90;;;;;;5022398;28;20112;-63
2023/02/10 11:07:52;;;;;;;33.97;12.15;;;5.70;99.90;;;;;;5011291;28;20060;-63
2023/02/10 11:10:24;;;;;;;24.80;10.80;;;5.80;99.90;;;;;;5017252;28;20508;-62
2023/02/10 11:12:50;;;;;;;28.40;11.75;;;5.80;99.90;;;;;;5013716;28;20496;-63
2023/02/10 11:15:40;;;;;;;29.48;10.70;;;6.00;99.90;;;;;;5015210;28;20040;-63
2023/02/10 11:18:17;;;;;;;23.25;10.13;;;6.10;99.90;;;;;;5002232;28;20033;-64
2023/02/10 11:20:56;;;;;;;27.67;10.15;;;6.20;99.90;;;;;;4989972;28;20078;-63
2023/02/10 11:23:22;;;;;;;26.52;9.98;;;6.30;99.90;;;;;;5006068;28;20053;-63
2023/02/10 11:26:06;;;;;;;27.33;10.05;;;6.30;99.90;;;;;;5009607;28;20048;-63
2023/02/10 11:28:35;;;;;;;21.10;8.77;;;6.50;99.90;;;;;;5019046;28;20038;-64
2023/02/10 11:31:06;;;;;;;26.30;10.20;;;6.60;99.90;;;;;;5014633;28;20046;-63
2023/02/10 11:33:34;;;;;;;26.30;9.15;;;6.70;99.90;;;;;;5019552;28;20045;-64
2023/02/10 11:36:09;;;;;;;24.75;10.30;;;6.80;99.90;;;;;;5016358;28;20046;-64
2023/02/10 11:38:36;;;;;;;21.40;9.70;;;6.90;99.90;;;;;;5031341;28;20052;-64
2023/02/10 11:41:08;;;;;;;24.23;9.35;;;7.00;99.90;;;;;;5030150;28;20045;-64
2023/02/10 11:43:43;;;;;;;21.65;9.02;;;7.10;99.90;;;;;;5025526;28;20124;-64
2023/02/10 11:46:27;;;;;;;20.27;8.75;;;7.20;99.90;;;;;;5023000;28;20069;-64
2023/02/10 11:48:55;;;;;;;22.58;9.05;;;7.20;99.90;;;;;;5028317;28;20044;-62
2023/02/10 11:51:21;;;;;;;23.15;9.60;;;7.30;99.90;;;;;;5001901;28;20041;-62
2023/02/10 11:53:48;;;;;;;19.77;7.68;;;7.30;99.90;;;;;;5020992;28;20049;-64
2023/02/10 11:59:25;;;;;;;17.80;8.52;;;7.30;99.90;;;;;;5022472;28;20046;-64
2023/02/10 12:01:58;;;;;;;18.05;8.57;;;7.30;99.90;;;;;;5011094;28;20053;-64
2023/02/10 12:04:41;;;;;;;17.05;8.68;;;7.50;99.90;;;;;;4989809;28;20537;-64
2023/02/10 12:07:18;;;;;;;19.77;8.88;;;7.50;99.90;;;;;;5020833;28;20049;-64
2023/02/10 12:09:54;;;;;;;23.65;9.13;;;7.50;99.90;;;;;;5002750;28;20038;-64
2023/02/10 12:12:33;;;;;;;23.27;7.97;;;7.60;99.90;;;;;;5011486;28;20049;-63
2023/02/10 12:15:26;;;;;;;16.80;8.35;;;7.70;99.90;;;;;;5028333;28;20045;-63
2023/02/10 12:18:10;;;;;;;19.70;9.20;;;7.70;99.90;;;;;;5012486;28;20038;-62
2023/02/10 12:20:53;;;;;;;19.27;8.40;;;7.70;99.90;;;;;;5011811;28;20487;-63
2023/02/10 12:23:39;;;;;;;18.13;8.27;;;7.70;99.90;;;;;;5019919;28;20042;-63
2023/02/10 12:26:17;;;;;;;21.75;8.68;;;7.80;99.90;;;;;;5001298;28;20563;-63
2023/02/10 12:29:14;;;;;;;18.17;8.48;;;7.90;99.90;;;;;;5009643;28;20050;-63
2023/02/10 12:32:03;;;;;;;16.38;7.78;;;7.90;99.90;;;;;;4998511;28;20046;-63
2023/02/10 12:34:50;;;;;;;21.48;7.72;;;7.90;99.90;;;;;;5018375;28;20089;-63
2023/02/10 12:37:47;;;;;;;17.75;7.50;;;8.00;99.90;;;;;;5026393;28;20121;-63
2023/02/10 12:40:30;;;;;;;16.45;7.03;;;8.10;99.90;;;;;;5016196;28;20755;-63
2023/02/10 12:43:13;;;;;;;19.65;8.25;;;8.10;99.90;;;;;;5021432;28;20508;-63
2023/02/10 12:45:58;;;;;;;24.85;8.05;;;7.90;99.90;;;;;;5003321;28;20046;-63
2023/02/10 12:48:27;;;;;;;17.52;7.22;;;8.00;99.90;;;;;;5008154;28;20493;-63
2023/02/10 12:51:18;;;;;;;19.55;6.93;;;7.90;99.90;;;;;;5004601;28;20044;-63
2023/02/10 12:53:57;;;;;;;18.17;7.57;;;7.90;99.90;;;;;;5010612;28;20053;-63
2023/02/10 12:56:33;;;;;;;20.17;6.97;;;7.90;99.90;;;;;;5017294;28;20037;-63
2023/02/10 12:59:10;;;;;;;17.27;7.45;;;7.90;99.90;;;;;;5021717;28;20041;-63
2023/02/10 13:01:41;;;;;;;20.17;7.60;;;7.80;99.90;;;;;;5028548;28;20064;-63